sensor_id;sensor_type;location;lat;lon;timestamp;pressure;altitude;pressure_sealevel;temperature;humidity
71573;BME280;59408;51.032;9.410;2023-08-06T00:01:13;98157.13;;;13.30;100.00
71573;BME280;59408;51.032;9.410;2023-08-06T00:03:41;98150.09;;;13.29;100.00
71573;BME280;59408;51.032;9.410;2023-08-06T00:06:08;98151.63;;;13.30;100.00
71573;BME280;59408;51.032;9.410;2023-08-06T00:08:35;98145.34;;;13.26;100.00
71573;BME280;59408;51.032;9.410;2023-08-06T00:11:02;98147.31;;;13.25;100.00
71573;BME280;59408;51.032;9.410;2023-08-06T00:13:29;98147.25;;;13.21;100.00
71573;BME280;59408;51.032;9.410;2023-08-06T00:15:56;98144.50;;;13.18;100.00
71573;BME280;59408;51.032;9.410;2023-08-06T00:18:22;98144.09;;;13.16;100.00
71573;BME280;59408;51.032;9.410;2023-08-06T00:20:49;98122.56;;;13.14;100.00
71573;BME280;59408;51.032;9.410;2023-08-06T00:23:15;98113.94;;;13.12;100.00
71573;BME280;59408;51.032;9.410;2023-08-06T00:25:42;98115.47;;;13.06;100.00
71573;BME280;59408;51.032;9.410;2023-08-06T00:28:10;98104.09;;;13.04;100.00
71573;BME280;59408;51.032;9.410;2023-08-06T00:30:37;98122.06;;;13.02;100.00
71573;BME280;59408;51.032;9.410;2023-08-06T00:33:03;98112.25;;;12.97;100.00
71573;BME280;59408;51.032;9.410;2023-08-06T00:35:30;98111.81;;;12.95;100.00
71573;BME280;59408;51.032;9.410;2023-08-06T00:37:57;98109.47;;;12.94;100.00
71573;BME280;59408;51.032;9.410;2023-08-06T00:40:23;98111.41;;;12.90;100.00
71573;BME280;59408;51.032;9.410;2023-08-06T00:42:50;98102.03;;;12.91;100.00
71573;BME280;59408;51.032;9.410;2023-08-06T00:45:18;98097.34;;;12.91;100.00
71573;BME280;59408;51.032;9.410;2023-08-06T00:47:45;98086.75;;;12.90;100.00
71573;BME280;59408;51.032;9.410;2023-08-06T00:50:12;98091.44;;;12.89;100.00
71573;BME280;59408;51.032;9.410;2023-08-06T00:52:40;98091.06;;;12.91;100.00
71573;BME280;59408;51.032;9.410;2023-08-06T00:55:07;98080.53;;;12.93;100.00
71573;BME280;59408;51.032;9.410;2023-08-06T00:57:34;98089.50;;;12.93;100.00
71573;BME280;59408;51.032;9.410;2023-08-06T01:00:00;98087.19;;;12.95;100.00
71573;BME280;59408;51.032;9.410;2023-08-06T01:02:29;98090.72;;;12.96;100.00
71573;BME280;59408;51.032;9.410;2023-08-06T01:04:56;98088.41;;;12.98;100.00
71573;BME280;59408;51.032;9.410;2023-08-06T01:07:36;98089.59;;;13.00;100.00
71573;BME280;59408;51.032;9.410;2023-08-06T01:10:19;98086.50;;;13.02;100.00
71573;BME280;59408;51.032;9.410;2023-08-06T01:12:54;98086.88;;;13.04;100.00
71573;BME280;59408;51.032;9.410;2023-08-06T01:15:29;98085.72;;;13.05;100.00
71573;BME280;59408;51.032;9.410;2023-08-06T01:17:58;98084.56;;;13.06;100.00
71573;BME280;59408;51.032;9.410;2023-08-06T01:20:29;98083.34;;;13.03;100.00
71573;BME280;59408;51.032;9.410;2023-08-06T01:22:55;98078.66;;;13.04;100.00
71573;BME280;59408;51.032;9.410;2023-08-06T01:25:27;98077.06;;;12.99;100.00
71573;BME280;59408;51.032;9.410;2023-08-06T01:27:58;98085.66;;;12.98;100.00
71573;BME280;59408;51.032;9.410;2023-08-06T01:30:29;98077.00;;;12.92;100.00
71573;BME280;59408;51.032;9.410;2023-08-06T01:33:00;98085.13;;;12.85;100.00
71573;BME280;59408;51.032;9.410;2023-08-06T01:35:29;98080.06;;;12.83;100.00
71573;BME280;59408;51.032;9.410;2023-08-06T01:37:56;98084.75;;;12.83;100.00
71573;BME280;59408;51.032;9.410;2023-08-06T01:40:23;98083.97;;;12.86;100.00
71573;BME280;59408;51.032;9.410;2023-08-06T01:42:49;98072.25;;;12.85;100.00
71573;BME280;59408;51.032;9.410;2023-08-06T01:45:16;98066.81;;;12.89;100.00
71573;BME280;59408;51.032;9.410;2023-08-06T01:47:42;98070.75;;;12.92;100.00
71573;BME280;59408;51.032;9.410;2023-08-06T01:50:09;98066.03;;;12.89;100.00
71573;BME280;59408;51.032;9.410;2023-08-06T01:52:37;98061.34;;;12.89;100.00
71573;BME280;59408;51.032;9.410;2023-08-06T01:55:04;98052.69;;;12.83;100.00
71573;BME280;59408;51.032;9.410;2023-08-06T01:57:30;98051.44;;;12.77;100.00
71573;BME280;59408;51.032;9.410;2023-08-06T01:59:57;98045.53;;;12.72;100.00
71573;BME280;59408;51.032;9.410;2023-08-06T02:02:24;98052.13;;;12.64;100.00
71573;BME280;59408;51.032;9.410;2023-08-06T02:04:50;98047.34;;;12.57;100.00
71573;BME280;59408;51.032;9.410;2023-08-06T02:07:17;98040.22;;;12.49;100.00
71573;BME280;59408;51.032;9.410;2023-08-06T02:09:44;98040.59;;;12.44;100.00
71573;BME280;59408;51.032;9.410;2023-08-06T02:12:11;98041.69;;;12.39;100.00
71573;BME280;59408;51.032;9.410;2023-08-06T02:14:38;98037.31;;;12.31;100.00
71573;BME280;59408;51.032;9.410;2023-08-06T02:17:04;98034.50;;;12.24;100.00
71573;BME280;59408;51.032;9.410;2023-08-06T02:19:31;98034.47;;;12.21;100.00
71573;BME280;59408;51.032;9.410;2023-08-06T02:21:58;98031.72;;;12.21;100.00
71573;BME280;59408;51.032;9.410;2023-08-06T02:24:24;98035.59;;;12.16;100.00
71573;BME280;59408;51.032;9.410;2023-08-06T02:26:52;98024.28;;;12.18;100.00
71573;BME280;59408;51.032;9.410;2023-08-06T02:29:19;98028.59;;;12.19;100.00
71573;BME280;59408;51.032;9.410;2023-08-06T02:31:45;98019.25;;;12.20;100.00
71573;BME280;59408;51.032;9.410;2023-08-06T02:34:12;98019.25;;;12.20;100.00
71573;BME280;59408;51.032;9.410;2023-08-06T02:36:38;98013.78;;;12.20;100.00
71573;BME280;59408;51.032;9.410;2023-08-06T02:39:05;98005.16;;;12.18;100.00
71573;BME280;59408;51.032;9.410;2023-08-06T02:41:32;98008.25;;;12.16;100.00
71573;BME280;59408;51.032;9.410;2023-08-06T02:44:00;98002.72;;;12.12;100.00
71573;BME280;59408;51.032;9.410;2023-08-06T02:46:26;98000.75;;;12.13;100.00
71573;BME280;59408;51.032;9.410;2023-08-06T02:48:53;98003.88;;;12.11;100.00
71573;BME280;59408;51.032;9.410;2023-08-06T02:51:19;97998.84;;;12.14;100.00
71573;BME280;59408;51.032;9.410;2023-08-06T02:53:47;97983.66;;;12.16;100.00
71573;BME280;59408;51.032;9.410;2023-08-06T02:56:14;97986.38;;;12.16;100.00
71573;BME280;59408;51.032;9.410;2023-08-06T02:58:41;97977.03;;;12.17;100.00
71573;BME280;59408;51.032;9.410;2023-08-06T03:01:09;97971.19;;;12.19;100.00
71573;BME280;59408;51.032;9.410;2023-08-06T03:03:35;97963.78;;;12.19;100.00
71573;BME280;59408;51.032;9.410;2023-08-06T03:06:02;97961.03;;;12.19;100.00
71573;BME280;59408;51.032;9.410;2023-08-06T03:08:29;97967.28;;;12.20;100.00
71573;BME280;59408;51.032;9.410;2023-08-06T03:10:55;97967.28;;;12.20;100.00
71573;BME280;59408;51.032;9.410;2023-08-06T03:13:22;97958.69;;;12.21;100.00
71573;BME280;59408;51.032;9.410;2023-08-06T03:15:52;97952.84;;;12.23;100.00
71573;BME280;59408;51.032;9.410;2023-08-06T03:18:20;97948.53;;;12.22;100.00
71573;BME280;59408;51.032;9.410;2023-08-06T03:20:47;97955.56;;;12.19;100.00
71573;BME280;59408;51.032;9.410;2023-08-06T03:23:14;97941.50;;;12.17;100.00
71573;BME280;59408;51.032;9.410;2023-08-06T03:25:40;97948.41;;;12.11;100.00
71573;BME280;59408;51.032;9.410;2023-08-06T03:28:07;97947.22;;;12.08;100.00
71573;BME280;59408;51.032;9.410;2023-08-06T03:30:33;97940.13;;;12.04;100.00
71573;BME280;59408;51.032;9.410;2023-08-06T03:33:00;97939.72;;;11.98;100.00
71573;BME280;59408;51.032;9.410;2023-08-06T03:35:28;97934.19;;;11.95;100.00
71573;BME280;59408;51.032;9.410;2023-08-06T03:37:55;97934.53;;;11.90;100.00
71573;BME280;59408;51.032;9.410;2023-08-06T03:40:21;97936.81;;;11.84;100.00
71573;BME280;59408;51.032;9.410;2023-08-06T03:42:48;97933.69;;;11.82;100.00
71573;BME280;59408;51.032;9.410;2023-08-06T03:45:15;97941.09;;;11.82;100.00
71573;BME280;59408;51.032;9.410;2023-08-06T03:47:41;97936.03;;;11.84;100.00
71573;BME280;59408;51.032;9.410;2023-08-06T03:50:09;97938.78;;;11.87;100.00
71573;BME280;59408;51.032;9.410;2023-08-06T03:52:36;97938.47;;;11.92;100.00
71573;BME280;59408;51.032;9.410;2023-08-06T03:55:03;97940.03;;;11.93;100.00
71573;BME280;59408;51.032;9.410;2023-08-06T03:57:30;97932.25;;;11.95;100.00
71573;BME280;59408;51.032;9.410;2023-08-06T03:59:57;97933.09;;;11.99;100.00
71573;BME280;59408;51.032;9.410;2023-08-06T04:02:23;97935.03;;;12.02;100.00
71573;BME280;59408;51.032;9.410;2023-08-06T04:04:50;97937.47;;;12.07;100.00
71573;BME280;59408;51.032;9.410;2023-08-06T04:07:16;97936.31;;;12.08;100.00
71573;BME280;59408;51.032;9.410;2023-08-06T04:09:54;97939.03;;;12.08;100.00
71573;BME280;59408;51.032;9.410;2023-08-06T04:12:21;97935.13;;;12.09;100.00
71573;BME280;59408;51.032;9.410;2023-08-06T04:14:49;97934.75;;;12.11;100.00
71573;BME280;59408;51.032;9.410;2023-08-06T04:17:16;97926.16;;;12.12;100.00
71573;BME280;59408;51.032;9.410;2023-08-06T04:19:42;97918.75;;;12.13;100.00
71573;BME280;59408;51.032;9.410;2023-08-06T04:22:09;97922.31;;;12.14;100.00
71573;BME280;59408;51.032;9.410;2023-08-06T04:24:36;97924.66;;;12.15;100.00
71573;BME280;59408;51.032;9.410;2023-08-06T04:27:04;97920.78;;;12.16;100.00
71573;BME280;59408;51.032;9.410;2023-08-06T04:29:31;97929.41;;;12.18;100.00
71573;BME280;59408;51.032;9.410;2023-08-06T04:31:57;97920.41;;;12.21;100.00
71573;BME280;59408;51.032;9.410;2023-08-06T04:34:24;97920.41;;;12.21;100.00
71573;BME280;59408;51.032;9.410;2023-08-06T04:36:51;97918.84;;;12.20;100.00
71573;BME280;59408;51.032;9.410;2023-08-06T04:39:17;97917.31;;;12.19;100.00
71573;BME280;59408;51.032;9.410;2023-08-06T04:41:44;97918.47;;;12.18;100.00
71573;BME280;59408;51.032;9.410;2023-08-06T04:44:12;97913.78;;;12.19;100.00
71573;BME280;59408;51.032;9.410;2023-08-06T04:46:38;97914.59;;;12.23;100.00
71573;BME280;59408;51.032;9.410;2023-08-06T04:49:05;97921.28;;;12.29;100.00
71573;BME280;59408;51.032;9.410;2023-08-06T04:51:32;97920.53;;;12.32;100.00
71573;BME280;59408;51.032;9.410;2023-08-06T04:53:58;97918.19;;;12.34;100.00
71573;BME280;59408;51.032;9.410;2023-08-06T04:56:25;97920.56;;;12.39;100.00
71573;BME280;59408;51.032;9.410;2023-08-06T04:58:52;97915.97;;;12.46;100.00
71573;BME280;59408;51.032;9.410;2023-08-06T05:01:20;97919.91;;;12.53;100.00
71573;BME280;59408;51.032;9.410;2023-08-06T05:03:46;97916.06;;;12.61;100.00
71573;BME280;59408;51.032;9.410;2023-08-06T05:06:13;97918.47;;;12.69;100.00
71573;BME280;59408;51.032;9.410;2023-08-06T05:08:40;97925.56;;;12.77;100.00
71573;BME280;59408;51.032;9.410;2023-08-06T05:11:06;97913.13;;;12.87;100.00
71573;BME280;59408;51.032;9.410;2023-08-06T05:13:33;97921.03;;;12.99;100.00
71573;BME280;59408;51.032;9.410;2023-08-06T05:16:00;97919.53;;;13.09;100.00
71573;BME280;59408;51.032;9.410;2023-08-06T05:18:28;97920.31;;;13.13;100.00
71573;BME280;59408;51.032;9.410;2023-08-06T05:20:54;97926.63;;;13.17;100.00
71573;BME280;59408;51.032;9.410;2023-08-06T05:23:21;97927.41;;;13.21;100.00
71573;BME280;59408;51.032;9.410;2023-08-06T05:25:48;97931.34;;;13.23;100.00
71573;BME280;59408;51.032;9.410;2023-08-06T05:28:14;97921.56;;;13.26;100.00
71573;BME280;59408;51.032;9.410;2023-08-06T05:30:41;97929.03;;;13.29;100.00
71573;BME280;59408;51.032;9.410;2023-08-06T05:33:08;97931.00;;;13.32;100.00
71573;BME280;59408;51.032;9.410;2023-08-06T05:35:36;97925.91;;;13.34;100.00
71573;BME280;59408;51.032;9.410;2023-08-06T05:38:02;97924.00;;;13.38;100.00
71573;BME280;59408;51.032;9.410;2023-08-06T05:40:29;97929.16;;;13.47;100.00
71573;BME280;59408;51.032;9.410;2023-08-06T05:42:55;97929.16;;;13.50;100.00
71573;BME280;59408;51.032;9.410;2023-08-06T05:45:22;97928.03;;;13.62;100.00
71573;BME280;59408;51.032;9.410;2023-08-06T05:47:48;97916.72;;;13.71;100.00
71573;BME280;59408;51.032;9.410;2023-08-06T05:50:15;97917.13;;;13.87;100.00
71573;BME280;59408;51.032;9.410;2023-08-06T05:52:44;97919.91;;;13.97;100.00
71573;BME280;59408;51.032;9.410;2023-08-06T05:55:11;97922.69;;;14.08;100.00
71573;BME280;59408;51.032;9.410;2023-08-06T05:57:37;97921.50;;;14.13;100.00
71573;BME280;59408;51.032;9.410;2023-08-06T06:00:05;97927.81;;;14.20;100.00
71573;BME280;59408;51.032;9.410;2023-08-06T06:02:32;97923.09;;;14.28;100.00
71573;BME280;59408;51.032;9.410;2023-08-06T06:04:58;97923.50;;;14.33;100.00
71573;BME280;59408;51.032;9.410;2023-08-06T06:07:25;97923.50;;;14.37;100.00
71573;BME280;59408;51.032;9.410;2023-08-06T06:09:53;97916.06;;;14.38;100.00
71573;BME280;59408;51.032;9.410;2023-08-06T06:12:19;97923.88;;;14.35;100.00
71573;BME280;59408;51.032;9.410;2023-08-06T06:14:46;97921.13;;;14.39;100.00
71573;BME280;59408;51.032;9.410;2023-08-06T06:17:12;97921.16;;;14.46;100.00
71573;BME280;59408;51.032;9.410;2023-08-06T06:19:39;97922.72;;;14.58;100.00
71573;BME280;59408;51.032;9.410;2023-08-06T06:22:06;97915.69;;;14.60;100.00
71573;BME280;59408;51.032;9.410;2023-08-06T06:24:32;97918.81;;;14.77;100.00
71573;BME280;59408;51.032;9.410;2023-08-06T06:27:00;97914.50;;;14.90;100.00
71573;BME280;59408;51.032;9.410;2023-08-06T06:29:27;97909.34;;;15.02;100.00
71573;BME280;59408;51.032;9.410;2023-08-06T06:31:53;97905.44;;;15.07;100.00
71573;BME280;59408;51.032;9.410;2023-08-06T06:34:20;97902.31;;;14.98;100.00
71573;BME280;59408;51.032;9.410;2023-08-06T06:36:47;97906.66;;;14.92;100.00
71573;BME280;59408;51.032;9.410;2023-08-06T06:39:13;97909.38;;;14.95;100.00
71573;BME280;59408;51.032;9.410;2023-08-06T06:41:40;97908.16;;;15.03;100.00
71573;BME280;59408;51.032;9.410;2023-08-06T06:44:08;97911.31;;;15.09;100.00
71573;BME280;59408;51.032;9.410;2023-08-06T06:46:34;97908.94;;;15.15;100.00
71573;BME280;59408;51.032;9.410;2023-08-06T06:49:01;97901.09;;;15.20;100.00
71573;BME280;59408;51.032;9.410;2023-08-06T06:51:28;97896.75;;;15.23;100.00
71573;BME280;59408;51.032;9.410;2023-08-06T06:53:54;97889.69;;;15.29;100.00
71573;BME280;59408;51.032;9.410;2023-08-06T06:56:21;97891.63;;;15.35;100.00
71573;BME280;59408;51.032;9.410;2023-08-06T06:58:47;97888.84;;;15.42;100.00
71573;BME280;59408;51.032;9.410;2023-08-06T07:01:15;97886.88;;;15.46;100.00
71573;BME280;59408;51.032;9.410;2023-08-06T07:03:42;97888.41;;;15.51;99.65
71573;BME280;59408;51.032;9.410;2023-08-06T07:06:08;97889.97;;;15.52;100.00
71573;BME280;59408;51.032;9.410;2023-08-06T07:08:35;97886.78;;;15.57;100.00
71573;BME280;59408;51.032;9.410;2023-08-06T07:11:02;97891.53;;;15.53;97.10
71573;BME280;59408;51.032;9.410;2023-08-06T07:13:30;97888.78;;;15.64;97.70
71573;BME280;59408;51.032;9.410;2023-08-06T07:15:56;97877.75;;;15.60;95.97
71573;BME280;59408;51.032;9.410;2023-08-06T07:18:24;97886.38;;;15.73;95.85
71573;BME280;59408;51.032;9.410;2023-08-06T07:20:52;97883.22;;;15.74;92.72
71573;BME280;59408;51.032;9.410;2023-08-06T07:23:20;97884.00;;;15.75;94.45
71573;BME280;59408;51.032;9.410;2023-08-06T07:25:48;97882.69;;;15.97;93.45
71573;BME280;59408;51.032;9.410;2023-08-06T07:28:15;97875.53;;;16.10;91.16
71573;BME280;59408;51.032;9.410;2023-08-06T07:30:43;97872.28;;;16.23;92.32
71573;BME280;59408;51.032;9.410;2023-08-06T07:33:10;97870.63;;;16.32;91.42
71573;BME280;59408;51.032;9.410;2023-08-06T07:35:38;97874.06;;;16.47;89.05
71573;BME280;59408;51.032;9.410;2023-08-06T07:38:05;97860.81;;;16.35;86.29
71573;BME280;59408;51.032;9.410;2023-08-06T07:40:31;97867.78;;;16.46;88.12
71573;BME280;59408;51.032;9.410;2023-08-06T07:42:58;97874.91;;;16.40;87.73
71573;BME280;59408;51.032;9.410;2023-08-06T07:45:25;97874.53;;;16.38;86.69
71573;BME280;59408;51.032;9.410;2023-08-06T07:47:51;97872.97;;;16.37;87.51
71573;BME280;59408;51.032;9.410;2023-08-06T07:50:18;97870.56;;;16.43;86.96
71573;BME280;59408;51.032;9.410;2023-08-06T07:52:46;97866.31;;;16.35;87.22
71573;BME280;59408;51.032;9.410;2023-08-06T07:55:13;97861.56;;;16.39;86.68
71573;BME280;59408;51.032;9.410;2023-08-06T07:57:39;97858.63;;;16.64;85.33
71573;BME280;59408;51.032;9.410;2023-08-06T08:00:06;97861.63;;;17.14;85.04
71573;BME280;59408;51.032;9.410;2023-08-06T08:02:33;97853.59;;;17.60;82.25
71573;BME280;59408;51.032;9.410;2023-08-06T08:05:00;97857.69;;;18.06;78.70
71573;BME280;59408;51.032;9.410;2023-08-06T08:07:27;97860.34;;;18.13;77.79
71573;BME280;59408;51.032;9.410;2023-08-06T08:09:54;97855.94;;;17.92;76.85
71573;BME280;59408;51.032;9.410;2023-08-06T08:12:21;97859.47;;;17.66;76.57
71573;BME280;59408;51.032;9.410;2023-08-06T08:14:48;97856.22;;;17.71;78.25
71573;BME280;59408;51.032;9.410;2023-08-06T08:17:16;97856.63;;;17.69;78.84
71573;BME280;59408;51.032;9.410;2023-08-06T08:19:43;97861.56;;;17.51;80.95
71573;BME280;59408;51.032;9.410;2023-08-06T08:22:10;97856.59;;;17.39;78.04
71573;BME280;59408;51.032;9.410;2023-08-06T08:24:37;97860.84;;;17.13;80.26
71573;BME280;59408;51.032;9.410;2023-08-06T08:27:05;97861.09;;;16.92;80.79
71573;BME280;59408;51.032;9.410;2023-08-06T08:29:31;97862.59;;;16.97;81.44
71573;BME280;59408;51.032;9.410;2023-08-06T08:31:58;97871.91;;;16.72;80.44
71573;BME280;59408;51.032;9.410;2023-08-06T08:34:25;97865.31;;;16.63;80.57
71573;BME280;59408;51.032;9.410;2023-08-06T08:36:51;97855.91;;;16.56;82.83
71573;BME280;59408;51.032;9.410;2023-08-06T08:39:18;97866.16;;;16.52;84.51
71573;BME280;59408;51.032;9.410;2023-08-06T08:41:45;97854.38;;;16.48;81.38
71573;BME280;59408;51.032;9.410;2023-08-06T08:44:13;97863.06;;;16.47;80.62
71573;BME280;59408;51.032;9.410;2023-08-06T08:46:43;97860.41;;;16.36;80.31
71573;BME280;59408;51.032;9.410;2023-08-06T08:49:10;97849.47;;;16.29;78.30
71573;BME280;59408;51.032;9.410;2023-08-06T08:51:37;97863.22;;;16.29;79.46
71573;BME280;59408;51.032;9.410;2023-08-06T08:54:07;97855.63;;;16.40;79.59
71573;BME280;59408;51.032;9.410;2023-08-06T08:56:33;97860.97;;;16.58;78.95
71573;BME280;59408;51.032;9.410;2023-08-06T08:59:00;97848.38;;;16.61;78.49
71573;BME280;59408;51.032;9.410;2023-08-06T09:01:28;97854.69;;;16.65;78.05
71573;BME280;59408;51.032;9.410;2023-08-06T09:03:56;97849.47;;;16.74;77.98
71573;BME280;59408;51.032;9.410;2023-08-06T09:06:25;97843.59;;;16.72;77.02
71573;BME280;59408;51.032;9.410;2023-08-06T09:08:58;97844.59;;;16.88;77.13
71573;BME280;59408;51.032;9.410;2023-08-06T09:11:27;97844.75;;;17.12;78.45
71573;BME280;59408;51.032;9.410;2023-08-06T09:13:56;97842.13;;;17.31;76.64
71573;BME280;59408;51.032;9.410;2023-08-06T09:16:23;97836.34;;;17.53;76.18
71573;BME280;59408;51.032;9.410;2023-08-06T09:18:51;97840.81;;;17.74;75.64
71573;BME280;59408;51.032;9.410;2023-08-06T09:21:18;97843.84;;;18.10;75.36
71573;BME280;59408;51.032;9.410;2023-08-06T09:23:44;97838.47;;;18.26;73.25
71573;BME280;59408;51.032;9.410;2023-08-06T09:26:11;97837.78;;;18.41;72.88
71573;BME280;59408;51.032;9.410;2023-08-06T09:28:41;97835.88;;;18.38;71.79
71573;BME280;59408;51.032;9.410;2023-08-06T09:31:08;97839.72;;;18.48;72.19
71573;BME280;59408;51.032;9.410;2023-08-06T09:33:36;97838.69;;;18.35;72.00
71573;BME280;59408;51.032;9.410;2023-08-06T09:36:08;97842.56;;;18.64;72.96
71573;BME280;59408;51.032;9.410;2023-08-06T09:38:37;97837.38;;;18.90;71.30
71573;BME280;59408;51.032;9.410;2023-08-06T09:41:04;97841.56;;;19.17;67.86
71573;BME280;59408;51.032;9.410;2023-08-06T09:43:39;97842.22;;;19.25;68.21
71573;BME280;59408;51.032;9.410;2023-08-06T09:46:10;97844.72;;;19.39;70.13
71573;BME280;59408;51.032;9.410;2023-08-06T09:48:37;97841.28;;;19.51;68.71
71573;BME280;59408;51.032;9.410;2023-08-06T09:51:04;97841.03;;;19.82;68.40
71573;BME280;59408;51.032;9.410;2023-08-06T09:53:34;97844.72;;;20.11;69.29
71573;BME280;59408;51.032;9.410;2023-08-06T09:56:00;97837.91;;;19.80;65.01
71573;BME280;59408;51.032;9.410;2023-08-06T09:58:29;97828.72;;;20.19;68.19
71573;BME280;59408;51.032;9.410;2023-08-06T10:00:57;97828.03;;;20.31;70.16
71573;BME280;59408;51.032;9.410;2023-08-06T10:03:24;97829.56;;;20.64;66.63
71573;BME280;59408;51.032;9.410;2023-08-06T10:05:51;97826.13;;;20.12;67.23
71573;BME280;59408;51.032;9.410;2023-08-06T10:08:18;97836.63;;;19.29;68.72
71573;BME280;59408;51.032;9.410;2023-08-06T10:10:46;97841.41;;;19.25;70.48
71573;BME280;59408;51.032;9.410;2023-08-06T10:13:13;97834.25;;;19.07;70.67
71573;BME280;59408;51.032;9.410;2023-08-06T10:15:40;97837.28;;;18.73;70.88
71573;BME280;59408;51.032;9.410;2023-08-06T10:18:08;97833.63;;;18.57;71.90
71573;BME280;59408;51.032;9.410;2023-08-06T10:20:35;97830.09;;;18.56;72.63
71573;BME280;59408;51.032;9.410;2023-08-06T10:23:04;97829.16;;;18.39;73.85
71573;BME280;59408;51.032;9.410;2023-08-06T10:25:31;97827.56;;;18.65;75.11
71573;BME280;59408;51.032;9.410;2023-08-06T10:28:00;97828.16;;;18.30;73.27
71573;BME280;59408;51.032;9.410;2023-08-06T10:30:28;97823.75;;;18.32;71.87
71573;BME280;59408;51.032;9.410;2023-08-06T10:32:56;97817.75;;;18.61;70.61
71573;BME280;59408;51.032;9.410;2023-08-06T10:35:30;97818.75;;;18.94;69.39
71573;BME280;59408;51.032;9.410;2023-08-06T10:37:59;97810.53;;;19.30;68.23
71573;BME280;59408;51.032;9.410;2023-08-06T10:40:25;97812.06;;;19.86;69.58
71573;BME280;59408;51.032;9.410;2023-08-06T10:42:52;97812.47;;;20.37;63.85
71573;BME280;59408;51.032;9.410;2023-08-06T10:45:20;97817.94;;;19.88;63.32
71573;BME280;59408;51.032;9.410;2023-08-06T10:47:47;97803.13;;;19.79;66.28
71573;BME280;59408;51.032;9.410;2023-08-06T10:50:15;97802.31;;;20.31;67.64
71573;BME280;59408;51.032;9.410;2023-08-06T10:52:42;97802.88;;;20.71;65.69
71573;BME280;59408;51.032;9.410;2023-08-06T10:55:09;97799.06;;;21.10;61.26
71573;BME280;59408;51.032;9.410;2023-08-06T10:57:36;97798.72;;;21.08;63.24
71573;BME280;59408;51.032;9.410;2023-08-06T11:00:04;97801.28;;;21.69;63.47
71573;BME280;59408;51.032;9.410;2023-08-06T11:02:43;97794.00;;;21.21;61.40
71573;BME280;59408;51.032;9.410;2023-08-06T11:05:10;97801.72;;;20.84;61.83
71573;BME280;59408;51.032;9.410;2023-08-06T11:07:37;97788.63;;;20.40;65.54
71573;BME280;59408;51.032;9.410;2023-08-06T11:10:05;97792.41;;;19.65;68.86
71573;BME280;59408;51.032;9.410;2023-08-06T11:12:32;97785.22;;;19.67;71.11
71573;BME280;59408;51.032;9.410;2023-08-06T11:14:59;97788.44;;;19.82;71.59
71573;BME280;59408;51.032;9.410;2023-08-06T11:17:27;97789.84;;;19.74;71.25
71573;BME280;59408;51.032;9.410;2023-08-06T11:19:56;97789.78;;;19.94;70.38
71573;BME280;59408;51.032;9.410;2023-08-06T11:22:25;97783.00;;;20.43;71.19
71573;BME280;59408;51.032;9.410;2023-08-06T11:24:52;97784.81;;;21.36;67.20
71573;BME280;59408;51.032;9.410;2023-08-06T11:27:19;97782.94;;;22.22;63.03
71573;BME280;59408;51.032;9.410;2023-08-06T11:29:46;97776.22;;;22.92;65.66
71573;BME280;59408;51.032;9.410;2023-08-06T11:32:13;97775.34;;;24.19;60.47
71573;BME280;59408;51.032;9.410;2023-08-06T11:34:43;97777.59;;;24.69;54.40
71573;BME280;59408;51.032;9.410;2023-08-06T11:37:11;97771.06;;;23.56;56.76
71573;BME280;59408;51.032;9.410;2023-08-06T11:39:38;97783.50;;;22.30;58.79
71573;BME280;59408;51.032;9.410;2023-08-06T11:42:06;97782.59;;;21.44;61.93
71573;BME280;59408;51.032;9.410;2023-08-06T11:44:35;97784.72;;;20.53;64.55
71573;BME280;59408;51.032;9.410;2023-08-06T11:47:03;97780.84;;;20.80;65.89
71573;BME280;59408;51.032;9.410;2023-08-06T11:49:40;97783.81;;;20.73;65.82
71573;BME280;59408;51.032;9.410;2023-08-06T11:52:12;97778.25;;;20.44;66.95
71573;BME280;59408;51.032;9.410;2023-08-06T11:54:40;97782.06;;;20.01;68.80
71573;BME280;59408;51.032;9.410;2023-08-06T11:57:06;97774.25;;;19.80;70.04
71573;BME280;59408;51.032;9.410;2023-08-06T11:59:33;97775.28;;;19.86;69.12
71573;BME280;59408;51.032;9.410;2023-08-06T12:02:02;97771.03;;;21.20;70.96
71573;BME280;59408;51.032;9.410;2023-08-06T12:04:28;97769.34;;;22.84;62.86
71573;BME280;59408;51.032;9.410;2023-08-06T12:06:55;97759.31;;;23.92;61.21
71573;BME280;59408;51.032;9.410;2023-08-06T12:09:23;97762.47;;;23.72;58.84
71573;BME280;59408;51.032;9.410;2023-08-06T12:11:49;97762.00;;;24.14;57.05
71573;BME280;59408;51.032;9.410;2023-08-06T12:14:16;97761.28;;;23.51;57.96
71573;BME280;59408;51.032;9.410;2023-08-06T12:16:43;97764.72;;;23.55;59.13
71573;BME280;59408;51.032;9.410;2023-08-06T12:19:09;97755.41;;;24.48;57.60
71573;BME280;59408;51.032;9.410;2023-08-06T12:21:36;97753.84;;;24.28;56.76
71573;BME280;59408;51.032;9.410;2023-08-06T12:24:03;97748.09;;;25.23;62.99
71573;BME280;59408;51.032;9.410;2023-08-06T12:26:31;97749.06;;;25.71;53.01
71573;BME280;59408;51.032;9.410;2023-08-06T12:28:57;97749.81;;;26.14;52.98
71573;BME280;59408;51.032;9.410;2023-08-06T12:31:24;97750.09;;;25.83;50.47
71573;BME280;59408;51.032;9.410;2023-08-06T12:33:51;97751.69;;;25.75;49.61
71573;BME280;59408;51.032;9.410;2023-08-06T12:36:17;97755.09;;;25.28;53.36
71573;BME280;59408;51.032;9.410;2023-08-06T12:38:44;97758.31;;;24.17;54.74
71573;BME280;59408;51.032;9.410;2023-08-06T12:41:10;97758.00;;;23.44;57.45
71573;BME280;59408;51.032;9.410;2023-08-06T12:43:38;97764.56;;;22.84;59.73
71573;BME280;59408;51.032;9.410;2023-08-06T12:46:05;97770.25;;;22.46;61.00
71573;BME280;59408;51.032;9.410;2023-08-06T12:48:31;97769.97;;;22.19;61.62
71573;BME280;59408;51.032;9.410;2023-08-06T12:50:58;97759.47;;;21.22;64.29
71573;BME280;59408;51.032;9.410;2023-08-06T12:53:24;97762.06;;;21.42;66.82
71573;BME280;59408;51.032;9.410;2023-08-06T12:55:51;97772.22;;;21.07;65.25